sensor_id;sensor_type;location;lat;lon;timestamp;temperature;humidity
1055;DHT22;516;51.482;7.120;2023-06-24T00:01:02;16.50;99.90
1055;DHT22;516;51.482;7.120;2023-06-24T00:06:50;16.50;99.90
1055;DHT22;516;51.482;7.120;2023-06-24T00:12:40;16.40;99.90
1055;DHT22;516;51.482;7.120;2023-06-24T00:18:28;16.40;99.90
1055;DHT22;516;51.482;7.120;2023-06-24T00:24:20;16.50;99.90
1055;DHT22;516;51.482;7.120;2023-06-24T00:30:09;16.40;99.90
1055;DHT22;516;51.482;7.120;2023-06-24T00:35:57;16.20;99.90
1055;DHT22;516;51.482;7.120;2023-06-24T00:41:44;16.10;99.90
1055;DHT22;516;51.482;7.120;2023-06-24T00:47:32;16.00;99.90
1055;DHT22;516;51.482;7.120;2023-06-24T00:53:02;16.10;99.90
1055;DHT22;516;51.482;7.120;2023-06-24T01:08:57;16.00;99.90
1055;DHT22;516;51.482;7.120;2023-06-24T01:14:44;15.70;99.90
1055;DHT22;516;51.482;7.120;2023-06-24T01:40:44;15.50;99.90
1055;DHT22;516;51.482;7.120;2023-06-24T01:46:32;15.60;99.90
1055;DHT22;516;51.482;7.120;2023-06-24T01:52:21;15.70;99.90
1055;DHT22;516;51.482;7.120;2023-06-24T01:58:12;15.70;99.90
1055;DHT22;516;51.482;7.120;2023-06-24T02:04:03;15.60;99.90
1055;DHT22;516;51.482;7.120;2023-06-24T02:13:12;15.40;99.90
1055;DHT22;516;51.482;7.120;2023-06-24T02:19:01;15.40;99.90
1055;DHT22;516;51.482;7.120;2023-06-24T02:24:49;15.30;99.90
1055;DHT22;516;51.482;7.120;2023-06-24T02:30:38;15.20;99.90
1055;DHT22;516;51.482;7.120;2023-06-24T02:36:26;15.30;99.90
1055;DHT22;516;51.482;7.120;2023-06-24T02:42:14;15.20;99.90
1055;DHT22;516;51.482;7.120;2023-06-24T02:48:02;15.10;99.90
1055;DHT22;516;51.482;7.120;2023-06-24T02:53:51;15.10;99.90
1055;DHT22;516;51.482;7.120;2023-06-24T02:59:39;15.10;99.90
1055;DHT22;516;51.482;7.120;2023-06-24T03:05:20;15.10;99.90
1055;DHT22;516;51.482;7.120;2023-06-24T03:11:13;15.10;99.90
1055;DHT22;516;51.482;7.120;2023-06-24T03:17:01;15.20;99.90
1055;DHT22;516;51.482;7.120;2023-06-24T03:22:49;15.10;99.90
1055;DHT22;516;51.482;7.120;2023-06-24T03:28:37;15.20;99.90
1055;DHT22;516;51.482;7.120;2023-06-24T03:34:26;15.40;99.90
1055;DHT22;516;51.482;7.120;2023-06-24T03:40:14;15.80;99.90
1055;DHT22;516;51.482;7.120;2023-06-24T03:46:02;15.90;99.90
1055;DHT22;516;51.482;7.120;2023-06-24T03:51:49;16.20;99.90
1055;DHT22;516;51.482;7.120;2023-06-24T03:57:37;16.50;99.90
1055;DHT22;516;51.482;7.120;2023-06-24T04:07:24;16.70;99.90
1055;DHT22;516;51.482;7.120;2023-06-24T04:13:15;17.00;99.90
1055;DHT22;516;51.482;7.120;2023-06-24T04:19:03;17.40;99.90
1055;DHT22;516;51.482;7.120;2023-06-24T04:24:51;17.60;99.90
1055;DHT22;516;51.482;7.120;2023-06-24T04:30:38;17.70;99.90
1055;DHT22;516;51.482;7.120;2023-06-24T04:36:26;17.80;99.90
1055;DHT22;516;51.482;7.120;2023-06-24T04:42:14;17.80;99.90
1055;DHT22;516;51.482;7.120;2023-06-24T04:48:02;18.20;99.90
1055;DHT22;516;51.482;7.120;2023-06-24T04:53:49;18.30;99.90
1055;DHT22;516;51.482;7.120;2023-06-24T04:59:37;18.40;99.90
1055;DHT22;516;51.482;7.120;2023-06-24T05:05:21;18.50;99.90
1055;DHT22;516;51.482;7.120;2023-06-24T05:11:08;18.70;99.90
1055;DHT22;516;51.482;7.120;2023-06-24T05:16:56;19.00;99.90
1055;DHT22;516;51.482;7.120;2023-06-24T05:22:44;19.60;99.90
1055;DHT22;516;51.482;7.120;2023-06-24T05:28:32;20.20;99.90
1055;DHT22;516;51.482;7.120;2023-06-24T05:34:19;20.30;99.90
1055;DHT22;516;51.482;7.120;2023-06-24T05:40:08;20.00;99.90
1055;DHT22;516;51.482;7.120;2023-06-24T05:45:56;21.60;99.90
1055;DHT22;516;51.482;7.120;2023-06-24T05:51:44;21.70;99.90
1055;DHT22;516;51.482;7.120;2023-06-24T05:57:32;21.50;99.90
1055;DHT22;516;51.482;7.120;2023-06-24T06:13:10;22.70;99.90
1055;DHT22;516;51.482;7.120;2023-06-24T06:18:58;22.80;99.90
1055;DHT22;516;51.482;7.120;2023-06-24T06:24:45;23.60;99.90
1055;DHT22;516;51.482;7.120;2023-06-24T06:30:33;23.30;99.90
1055;DHT22;516;51.482;7.120;2023-06-24T06:36:21;24.50;99.90
1055;DHT22;516;51.482;7.120;2023-06-24T06:42:09;24.20;99.90
1055;DHT22;516;51.482;7.120;2023-06-24T06:47:38;23.60;99.90
1055;DHT22;516;51.482;7.120;2023-06-24T06:53:26;22.70;99.90
1055;DHT22;516;51.482;7.120;2023-06-24T06:59:13;22.90;99.90
1055;DHT22;516;51.482;7.120;2023-06-24T07:08:26;23.00;99.90
1055;DHT22;516;51.482;7.120;2023-06-24T07:14:13;24.50;99.90
1055;DHT22;516;51.482;7.120;2023-06-24T07:20:01;24.30;99.90
1055;DHT22;516;51.482;7.120;2023-06-24T07:25:49;23.90;99.90
1055;DHT22;516;51.482;7.120;2023-06-24T07:31:37;24.60;99.90
1055;DHT22;516;51.482;7.120;2023-06-24T07:37:25;23.70;99.90
1055;DHT22;516;51.482;7.120;2023-06-24T07:43:13;24.90;99.90
1055;DHT22;516;51.482;7.120;2023-06-24T07:49:00;24.50;99.90
1055;DHT22;516;51.482;7.120;2023-06-24T07:54:48;24.60;99.90
1055;DHT22;516;51.482;7.120;2023-06-24T08:00:36;25.30;99.90
1055;DHT22;516;51.482;7.120;2023-06-24T08:06:22;25.50;99.90
1055;DHT22;516;51.482;7.120;2023-06-24T08:12:10;26.10;99.90
1055;DHT22;516;51.482;7.120;2023-06-24T08:17:57;25.30;99.90
1055;DHT22;516;51.482;7.120;2023-06-24T08:23:46;26.00;99.90
1055;DHT22;516;51.482;7.120;2023-06-24T08:29:34;26.00;99.90
1055;DHT22;516;51.482;7.120;2023-06-24T08:35:21;25.20;99.90
1055;DHT22;516;51.482;7.120;2023-06-24T08:41:09;26.40;99.90
1055;DHT22;516;51.482;7.120;2023-06-24T08:46:57;26.60;99.90
1055;DHT22;516;51.482;7.120;2023-06-24T08:52:51;27.10;99.90
1055;DHT22;516;51.482;7.120;2023-06-24T08:58:40;26.60;99.90
1055;DHT22;516;51.482;7.120;2023-06-24T09:08:27;27.70;99.90
1055;DHT22;516;51.482;7.120;2023-06-24T09:14:15;26.70;99.90
1055;DHT22;516;51.482;7.120;2023-06-24T09:20:06;27.10;99.90
1055;DHT22;516;51.482;7.120;2023-06-24T09:25:57;27.40;99.20
1055;DHT22;516;51.482;7.120;2023-06-24T09:31:49;28.00;94.00
1055;DHT22;516;51.482;7.120;2023-06-24T09:37:39;28.00;82.30
1055;DHT22;516;51.482;7.120;2023-06-24T09:43:27;28.10;81.10
1055;DHT22;516;51.482;7.120;2023-06-24T09:49:15;28.40;69.60
1055;DHT22;516;51.482;7.120;2023-06-24T09:55:03;28.60;67.20
1055;DHT22;516;51.482;7.120;2023-06-24T10:00:51;28.10;53.40
1055;DHT22;516;51.482;7.120;2023-06-24T10:03:56;28.00;52.70
1055;DHT22;516;51.482;7.120;2023-06-24T10:06:22;27.80;53.60
1055;DHT22;516;51.482;7.120;2023-06-24T10:12:11;28.00;53.90
1055;DHT22;516;51.482;7.120;2023-06-24T10:18:02;28.20;48.40
1055;DHT22;516;51.482;7.120;2023-06-24T10:23:52;28.10;45.20
1055;DHT22;516;51.482;7.120;2023-06-24T10:29:50;28.60;39.30
1055;DHT22;516;51.482;7.120;2023-06-24T10:35:41;28.90;39.90
1055;DHT22;516;51.482;7.120;2023-06-24T10:41:31;27.60;37.10
1055;DHT22;516;51.482;7.120;2023-06-24T10:47:19;28.50;32.60
1055;DHT22;516;51.482;7.120;2023-06-24T10:53:08;28.70;35.10
1055;DHT22;516;51.482;7.120;2023-06-24T10:58:56;28.30;26.60
1055;DHT22;516;51.482;7.120;2023-06-24T11:08:25;28.80;26.00
1055;DHT22;516;51.482;7.120;2023-06-24T11:14:12;29.20;22.50
1055;DHT22;516;51.482;7.120;2023-06-24T11:20:07;29.20;1.40
1055;DHT22;516;51.482;7.120;2023-06-24T11:25:56;29.10;8.20
1055;DHT22;516;51.482;7.120;2023-06-24T11:31:51;29.10;4.30
1055;DHT22;516;51.482;7.120;2023-06-24T11:37:44;29.80;8.20
1055;DHT22;516;51.482;7.120;2023-06-24T11:43:33;29.90;11.70
1055;DHT22;516;51.482;7.120;2023-06-24T11:49:21;30.20;9.10
1055;DHT22;516;51.482;7.120;2023-06-24T11:55:13;29.10;5.70
1055;DHT22;516;51.482;7.120;2023-06-24T12:01:03;29.10;4.00
1055;DHT22;516;51.482;7.120;2023-06-24T12:03:56;29.80;1.00
1055;DHT22;516;51.482;7.120;2023-06-24T12:06:22;29.80;1.00
1055;DHT22;516;51.482;7.120;2023-06-24T12:12:10;30.20;1.00
1055;DHT22;516;51.482;7.120;2023-06-24T12:17:57;28.50;1.40
1055;DHT22;516;51.482;7.120;2023-06-24T12:23:45;29.90;1.00
1055;DHT22;516;51.482;7.120;2023-06-24T12:29:33;30.20;1.00
1055;DHT22;516;51.482;7.120;2023-06-24T12:35:22;28.80;1.00
1055;DHT22;516;51.482;7.120;2023-06-24T12:41:12;28.40;1.00
1055;DHT22;516;51.482;7.120;2023-06-24T12:46:41;29.90;1.00
1055;DHT22;516;51.482;7.120;2023-06-24T12:52:28;29.70;1.10
1055;DHT22;516;51.482;7.120;2023-06-24T12:58:21;29.70;1.70
1055;DHT22;516;51.482;7.120;2023-06-24T13:11:10;29.60;1.70
1055;DHT22;516;51.482;7.120;2023-06-24T13:13:36;30.90;1.00
1055;DHT22;516;51.482;7.120;2023-06-24T13:22:45;30.60;1.00
1055;DHT22;516;51.482;7.120;2023-06-24T13:28:32;30.10;1.00
1055;DHT22;516;51.482;7.120;2023-06-24T13:34:19;29.50;1.00
1055;DHT22;516;51.482;7.120;2023-06-24T13:40:07;30.50;1.00
1055;DHT22;516;51.482;7.120;2023-06-24T13:45:55;30.00;1.00
1055;DHT22;516;51.482;7.120;2023-06-24T13:51:42;31.50;1.00
1055;DHT22;516;51.482;7.120;2023-06-24T13:57:30;30.70;1.00
1055;DHT22;516;51.482;7.120;2023-06-24T14:03:18;30.40;1.00
1055;DHT22;516;51.482;7.120;2023-06-24T14:12:58;30.00;1.00
1055;DHT22;516;51.482;7.120;2023-06-24T14:18:46;30.50;1.00
1055;DHT22;516;51.482;7.120;2023-06-24T14:24:35;30.00;1.00
1055;DHT22;516;51.482;7.120;2023-06-24T14:30:23;30.10;1.00
1055;DHT22;516;51.482;7.120;2023-06-24T14:36:11;31.00;1.00
1055;DHT22;516;51.482;7.120;2023-06-24T14:41:59;31.00;1.00
1055;DHT22;516;51.482;7.120;2023-06-24T14:47:46;30.50;1.00
1055;DHT22;516;51.482;7.120;2023-06-24T14:53:34;31.50;1.00
1055;DHT22;516;51.482;7.120;2023-06-24T14:59:22;30.30;1.00
1055;DHT22;516;51.482;7.120;2023-06-24T15:05:09;30.50;1.00
1055;DHT22;516;51.482;7.120;2023-06-24T15:10:53;30.50;1.00
1055;DHT22;516;51.482;7.120;2023-06-24T15:16:41;30.50;1.00
1055;DHT22;516;51.482;7.120;2023-06-24T15:22:28;30.80;1.00
1055;DHT22;516;51.482;7.120;2023-06-24T15:28:16;30.40;1.00
1055;DHT22;516;51.482;7.120;2023-06-24T15:34:04;31.00;1.00
1055;DHT22;516;51.482;7.120;2023-06-24T15:39:52;30.10;1.00
1055;DHT22;516;51.482;7.120;2023-06-24T15:45:40;30.00;1.00
1055;DHT22;516;51.482;7.120;2023-06-24T15:51:28;30.10;1.00
1055;DHT22;516;51.482;7.120;2023-06-24T15:57:16;30.40;1.00
1055;DHT22;516;51.482;7.120;2023-06-24T16:03:03;30.10;1.00
1055;DHT22;516;51.482;7.120;2023-06-24T16:18:45;30.90;1.00
1055;DHT22;516;51.482;7.120;2023-06-24T16:24:32;30.90;1.00
1055;DHT22;516;51.482;7.120;2023-06-24T16:30:20;30.60;1.00
1055;DHT22;516;51.482;7.120;2023-06-24T16:36:08;29.70;1.00
1055;DHT22;516;51.482;7.120;2023-06-24T16:41:57;30.20;1.00
1055;DHT22;516;51.482;7.120;2023-06-24T16:47:45;30.00;1.00
1055;DHT22;516;51.482;7.120;2023-06-24T16:53:32;29.70;1.00
1055;DHT22;516;51.482;7.120;2023-06-24T16:59:20;29.60;1.00
1055;DHT22;516;51.482;7.120;2023-06-24T17:05:08;29.80;1.00
1055;DHT22;516;51.482;7.120;2023-06-24T17:11:11;29.80;1.00
1055;DHT22;516;51.482;7.120;2023-06-24T17:16:58;29.60;1.00
1055;DHT22;516;51.482;7.120;2023-06-24T17:22:46;29.60;1.00
1055;DHT22;516;51.482;7.120;2023-06-24T17:28:33;29.00;1.00
1055;DHT22;516;51.482;7.120;2023-06-24T17:34:20;29.10;1.00
1055;DHT22;516;51.482;7.120;2023-06-24T17:40:08;28.40;1.00
1055;DHT22;516;51.482;7.120;2023-06-24T17:45:55;28.30;1.00
1055;DHT22;516;51.482;7.120;2023-06-24T17:51:43;27.40;1.00
1055;DHT22;516;51.482;7.120;2023-06-24T17:57:31;27.40;1.00
1055;DHT22;516;51.482;7.120;2023-06-24T18:03:18;27.20;1.00
1055;DHT22;516;51.482;7.120;2023-06-24T18:12:56;26.90;1.00
1055;DHT22;516;51.482;7.120;2023-06-24T18:18:44;26.80;1.00
1055;DHT22;516;51.482;7.120;2023-06-24T18:24:32;26.90;1.20
1055;DHT22;516;51.482;7.120;2023-06-24T18:30:20;26.60;1.70
1055;DHT22;516;51.482;7.120;2023-06-24T18:36:08;26.40;2.20
1055;DHT22;516;51.482;7.120;2023-06-24T18:41:55;26.00;6.50
1055;DHT22;516;51.482;7.120;2023-06-24T18:47:43;25.90;6.80
1055;DHT22;516;51.482;7.120;2023-06-24T18:53:31;25.80;9.30
1055;DHT22;516;51.482;7.120;2023-06-24T18:59:19;25.60;10.00
1055;DHT22;516;51.482;7.120;2023-06-24T19:05:07;25.40;11.70
1055;DHT22;516;51.482;7.120;2023-06-24T19:10:53;25.30;13.60
1055;DHT22;516;51.482;7.120;2023-06-24T19:16:41;25.00;16.80
1055;DHT22;516;51.482;7.120;2023-06-24T19:22:29;24.80;17.60
1055;DHT22;516;51.482;7.120;2023-06-24T19:28:16;24.70;20.00
1055;DHT22;516;51.482;7.120;2023-06-24T19:34:04;24.30;24.00
1055;DHT22;516;51.482;7.120;2023-06-24T19:39:52;24.00;33.00
1055;DHT22;516;51.482;7.120;2023-06-24T19:45:39;23.70;40.60
1055;DHT22;516;51.482;7.120;2023-06-24T19:51:27;23.40;47.80
1055;DHT22;516;51.482;7.120;2023-06-24T19:57:17;23.10;51.20
1055;DHT22;516;51.482;7.120;2023-06-24T20:03:05;22.70;65.00
1055;DHT22;516;51.482;7.120;2023-06-24T20:18:44;22.30;85.60
1055;DHT22;516;51.482;7.120;2023-06-24T20:24:31;22.10;94.70
1055;DHT22;516;51.482;7.120;2023-06-24T20:30:19;21.90;99.90
1055;DHT22;516;51.482;7.120;2023-06-24T20:36:07;21.70;99.90
1055;DHT22;516;51.482;7.120;2023-06-24T20:41:56;21.40;99.90
1055;DHT22;516;51.482;7.120;2023-06-24T20:47:44;21.20;99.90
1055;DHT22;516;51.482;7.120;2023-06-24T20:53:32;21.10;99.90
1055;DHT22;516;51.482;7.120;2023-06-24T20:59:19;20.90;99.90
1055;DHT22;516;51.482;7.120;2023-06-24T21:05:07;20.80;99.90
1055;DHT22;516;51.482;7.120;2023-06-24T21:14:36;20.50;99.90
1055;DHT22;516;51.482;7.120;2023-06-24T21:20:24;20.40;99.90
1055;DHT22;516;51.482;7.120;2023-06-24T21:26:12;20.20;99.90
1055;DHT22;516;51.482;7.120;2023-06-24T21:32:00;20.20;99.90
1055;DHT22;516;51.482;7.120;2023-06-24T21:37:47;20.10;99.90
1055;DHT22;516;51.482;7.120;2023-06-24T21:43:35;20.00;99.90
1055;DHT22;516;51.482;7.120;2023-06-24T21:49:24;19.90;99.90
1055;DHT22;516;51.482;7.120;2023-06-24T21:55:11;19.90;99.90
1055;DHT22;516;51.482;7.120;2023-06-24T22:00:59;19.80;99.90
1055;DHT22;516;51.482;7.120;2023-06-24T22:06:46;19.60;99.90
1055;DHT22;516;51.482;7.120;2023-06-24T22:12:34;19.40;99.90
1055;DHT22;516;51.482;7.120;2023-06-24T22:18:22;19.40;99.90
1055;DHT22;516;51.482;7.120;2023-06-24T22:24:10;19.40;99.90
1055;DHT22;516;51.482;7.120;2023-06-24T22:29:58;19.10;99.90
1055;DHT22;516;51.482;7.120;2023-06-24T22:35:46;18.90;99.90
1055;DHT22;516;51.482;7.120;2023-06-24T22:41:33;18.70;99.90
1055;DHT22;516;51.482;7.120;2023-06-24T22:47:21;18.70;99.90
1055;DHT22;516;51.482;7.120;2023-06-24T22:53:08;18.50;99.90
1055;DHT22;516;51.482;7.120;2023-06-24T22:58:56;18.50;99.90
1055;DHT22;516;51.482;7.120;2023-06-24T23:04:44;18.40;99.90
1055;DHT22;516;51.482;7.120;2023-06-24T23:13:57;18.20;99.90
1055;DHT22;516;51.482;7.120;2023-06-24T23:19:47;18.10;99.90
1055;DHT22;516;51.482;7.120;2023-06-24T23:25:35;18.10;99.90
1055;DHT22;516;51.482;7.120;2023-06-24T23:31:27;18.30;99.90
1055;DHT22;516;51.482;7.120;2023-06-24T23:37:15;18.10;99.90
1055;DHT22;516;51.482;7.120;2023-06-24T23:43:03;17.90;99.90
1055;DHT22;516;51.482;7.120;2023-06-24T23:48:51;17.80;99.90
1055;DHT22;516;51.482;7.120;2023-06-24T23:54:39;17.70;99.90
